Time;durP1;ratioP1;P1;durP2;ratioP2;P2;SDS_P1;SDS_P2;PMS_P1;PMS_P2;Temp;Humidity;BMP_temperature;BMP_pressure;BME280_temperature;BME280_humidity;BME280_pressure;Samples;Min_cycle;Max_cycle;Signal;HPM_P1;HPM_P2
2023/01/12 00:01:52;;;;;;;7.30;3.10;;;7.30;99.90;;;;;;5091096;28;20525;-53
2023/01/12 00:04:19;;;;;;;5.60;1.90;;;7.20;99.90;;;;;;5092557;28;20469;-55
2023/01/12 00:06:46;;;;;;;5.67;2.70;;;7.10;99.90;;;;;;5092643;28;20447;-55
2023/01/12 00:09:14;;;;;;;6.27;2.20;;;7.00;99.90;;;;;;5090926;28;20932;-54
2023/01/12 00:11:41;;;;;;;4.60;3.23;;;7.00;99.90;;;;;;5092401;28;20505;-55
2023/01/12 00:14:10;;;;;;;2.80;2.40;;;6.80;99.90;;;;;;5092683;28;20447;-55
2023/01/12 00:16:37;;;;;;;3.53;2.40;;;6.90;99.90;;;;;;5091051;28;20454;-55
2023/01/12 00:19:14;;;;;;;5.70;2.50;;;6.80;99.90;;;;;;5092626;28;20451;-56
2023/01/12 00:21:55;;;;;;;9.33;2.23;;;6.70;99.90;;;;;;5092827;28;20508;-55
2023/01/12 00:24:24;;;;;;;5.30;2.50;;;6.80;99.90;;;;;;5090896;28;20423;-55
2023/01/12 00:26:52;;;;;;;2.93;2.63;;;6.80;99.90;;;;;;5092580;28;20456;-55
2023/01/12 00:29:21;;;;;;;10.40;2.27;;;6.90;99.90;;;;;;5092982;28;20800;-54
2023/01/12 00:31:48;;;;;;;3.87;2.60;;;6.90;99.90;;;;;;5090078;28;20546;-55
2023/01/12 00:34:16;;;;;;;4.70;2.27;;;7.00;99.90;;;;;;5092261;28;20451;-55
2023/01/12 00:36:43;;;;;;;4.17;2.47;;;7.00;99.90;;;;;;5092641;28;20798;-55
2023/01/12 00:39:10;;;;;;;6.77;3.87;;;7.10;99.90;;;;;;5090397;28;20494;-54
2023/01/12 00:47:10;;;;;;;5.30;2.20;;;7.30;99.90;;;;;;5090119;28;20419;-55
2023/01/12 00:49:38;;;;;;;5.00;2.20;;;7.30;99.90;;;;;;5096546;28;20447;-54
2023/01/12 00:52:06;;;;;;;3.13;2.10;;;7.30;99.90;;;;;;5096385;28;20453;-54
2023/01/12 00:54:33;;;;;;;3.23;2.40;;;7.40;99.90;;;;;;5094220;28;20497;-55
2023/01/12 00:57:00;;;;;;;3.53;2.20;;;7.50;99.90;;;;;;5096264;28;20946;-55
2023/01/12 00:59:29;;;;;;;5.63;2.77;;;7.50;99.90;;;;;;5096561;28;20443;-55
2023/01/12 01:01:56;;;;;;;3.73;2.33;;;7.60;99.90;;;;;;5094113;28;20443;-54
2023/01/12 01:04:24;;;;;;;2.70;2.13;;;7.60;99.90;;;;;;5096141;28;20537;-54
2023/01/12 01:06:51;;;;;;;3.60;2.53;;;7.60;99.90;;;;;;5096462;28;20470;-55
2023/01/12 01:09:18;;;;;;;4.50;2.17;;;7.70;99.90;;;;;;5093897;28;20558;-54
2023/01/12 01:11:46;;;;;;;4.23;3.43;;;7.70;99.90;;;;;;5096167;28;20503;-56
2023/01/12 01:14:13;;;;;;;7.00;2.33;;;7.70;99.90;;;;;;5096398;28;20866;-54
2023/01/12 01:16:41;;;;;;;4.33;2.53;;;7.80;99.90;;;;;;5094030;28;20483;-55
2023/01/12 01:19:09;;;;;;;3.83;2.37;;;7.80;99.90;;;;;;5095911;28;20463;-54
2023/01/12 01:21:37;;;;;;;5.43;2.53;;;7.80;99.90;;;;;;5095996;28;20466;-55
2023/01/12 01:24:04;;;;;;;2.53;2.33;;;7.80;99.90;;;;;;5093262;28;20457;-55
2023/01/12 01:26:31;;;;;;;10.23;2.77;;;7.80;99.90;;;;;;5095930;28;20489;-55
2023/01/12 01:28:59;;;;;;;3.40;2.13;;;7.80;99.90;;;;;;5096018;28;20447;-55
2023/01/12 01:31:27;;;;;;;4.63;2.50;;;7.80;99.90;;;;;;5093037;28;20471;-56
2023/01/12 01:33:56;;;;;;;5.70;2.00;;;7.80;99.90;;;;;;5095411;28;20545;-55
2023/01/12 01:36:23;;;;;;;4.83;2.80;;;7.80;99.90;;;;;;5095262;28;20489;-56
2023/01/12 01:38:50;;;;;;;7.53;2.73;;;7.80;99.90;;;;;;5092480;28;20551;-55
2023/01/12 01:41:21;;;;;;;7.40;2.27;;;7.80;99.90;;;;;;5095360;28;20612;-54
2023/01/12 01:43:51;;;;;;;4.07;2.80;;;7.80;99.90;;;;;;5093956;28;20511;-55
2023/01/12 01:46:27;;;;;;;5.80;2.43;;;7.80;99.90;;;;;;5093860;28;20459;-55
2023/01/12 01:48:57;;;;;;;3.93;1.97;;;7.80;99.90;;;;;;5095419;28;20883;-54
2023/01/12 01:51:24;;;;;;;3.60;2.00;;;7.80;99.90;;;;;;5094421;28;20478;-55
2023/01/12 01:53:51;;;;;;;3.37;2.00;;;7.90;99.90;;;;;;5094267;28;20458;-55
2023/01/12 01:56:22;;;;;;;5.57;2.70;;;7.90;99.90;;;;;;5095119;28;21016;-56
2023/01/12 01:58:54;;;;;;;5.73;3.67;;;7.90;99.90;;;;;;5093571;28;20428;-55
2023/01/12 02:01:22;;;;;;;3.60;2.20;;;7.90;99.90;;;;;;5095156;28;20464;-55
2023/01/12 02:03:50;;;;;;;4.03;2.80;;;7.90;99.90;;;;;;5094686;28;20530;-54
2023/01/12 02:06:19;;;;;;;5.30;2.27;;;8.00;99.90;;;;;;5093955;28;20446;-55
2023/01/12 02:08:51;;;;;;;3.57;2.00;;;8.00;99.90;;;;;;5095061;28;20494;-55
2023/01/12 02:16:58;;;;;;;8.30;2.23;;;8.10;99.90;;;;;;5094725;28;20584;-56
2023/01/12 02:19:51;;;;;;;2.37;2.17;;;8.10;99.90;;;;;;5094367;28;20514;-55
2023/01/12 02:22:42;;;;;;;4.77;2.70;;;8.00;99.90;;;;;;5092535;28;20436;-54
2023/01/12 02:25:24;;;;;;;6.17;2.50;;;8.00;99.90;;;;;;5094595;28;20751;-55
2023/01/12 02:28:13;;;;;;;5.40;2.90;;;8.00;99.90;;;;;;5094854;28;20434;-55
2023/01/12 02:31:28;;;;;;;4.73;2.57;;;8.00;99.90;;;;;;5092285;28;20463;-55
2023/01/12 02:34:08;;;;;;;6.63;2.43;;;8.00;99.90;;;;;;5009612;28;20945;-54
2023/01/12 02:36:45;;;;;;;6.23;2.70;;;8.10;99.90;;;;;;5010181;28;20475;-55
2023/01/12 02:39:19;;;;;;;5.47;2.90;;;8.10;99.90;;;;;;5069144;28;20666;-55
2023/01/12 02:44:43;;;;;;;2.80;1.90;;;8.10;99.90;;;;;;5091988;28;20423;-54
2023/01/12 02:47:19;;;;;;;4.17;2.20;;;8.10;99.90;;;;;;5094277;28;20515;-55
2023/01/12 02:49:52;;;;;;;5.90;2.47;;;8.10;99.90;;;;;;5094511;28;20427;-54
2023/01/12 02:52:24;;;;;;;5.03;2.43;;;8.10;99.90;;;;;;5092533;28;20427;-55
2023/01/12 02:54:53;;;;;;;6.97;2.87;;;8.10;99.90;;;;;;5093882;28;20442;-54
2023/01/12 02:57:23;;;;;;;4.83;2.73;;;8.00;99.90;;;;;;5093855;28;20451;-55
2023/01/12 02:59:51;;;;;;;4.27;2.50;;;8.00;99.90;;;;;;5092122;28;20583;-55
2023/01/12 03:02:21;;;;;;;5.60;2.50;;;7.90;99.90;;;;;;5093921;28;20454;-54
2023/01/12 03:04:50;;;;;;;4.40;2.77;;;8.00;99.90;;;;;;5093694;28;20448;-54
2023/01/12 03:07:33;;;;;;;4.23;1.87;;;8.00;99.90;;;;;;5091110;28;20444;-55
2023/01/12 03:10:07;;;;;;;4.23;2.37;;;7.90;99.90;;;;;;5093869;28;20475;-54
2023/01/12 03:12:36;;;;;;;4.93;2.50;;;8.00;99.90;;;;;;5093889;28;20433;-54
2023/01/12 03:15:07;;;;;;;5.93;2.10;;;8.00;99.90;;;;;;5091441;28;20451;-55
2023/01/12 03:17:38;;;;;;;3.20;2.50;;;7.90;99.90;;;;;;5093702;28;20518;-55
2023/01/12 03:20:10;;;;;;;6.80;2.37;;;7.90;99.90;;;;;;5093730;28;20459;-55
2023/01/12 03:22:38;;;;;;;4.70;2.83;;;7.90;99.90;;;;;;5091759;28;20761;-54
2023/01/12 03:25:10;;;;;;;3.00;2.07;;;7.90;99.90;;;;;;5093625;28;20493;-54
2023/01/12 03:27:41;;;;;;;8.20;3.57;;;7.90;99.90;;;;;;5093045;28;20502;-54
2023/01/12 03:30:11;;;;;;;5.03;2.70;;;7.90;99.90;;;;;;5092985;28;20801;-55
2023/01/12 03:32:39;;;;;;;3.03;2.37;;;7.90;99.90;;;;;;5093311;28;20447;-56
2023/01/12 03:35:08;;;;;;;5.13;2.57;;;7.90;99.90;;;;;;5092066;28;20454;-56
2023/01/12 03:37:39;;;;;;;4.50;2.10;;;7.90;99.90;;;;;;5092298;28;20448;-55
2023/01/12 03:40:13;;;;;;;5.10;3.20;;;7.90;99.90;;;;;;5093215;28;20475;-55
2023/01/12 03:42:46;;;;;;;8.40;3.07;;;7.90;99.90;;;;;;5091247;28;20831;-55
2023/01/12 03:45:24;;;;;;;4.10;2.83;;;7.80;99.90;;;;;;5093150;28;20428;-55
2023/01/12 03:47:55;;;;;;;5.27;2.50;;;7.80;99.90;;;;;;5093056;28;20967;-55
2023/01/12 03:50:28;;;;;;;2.97;2.53;;;7.90;99.90;;;;;;5090568;28;20471;-55
2023/01/12 03:52:59;;;;;;;4.63;2.57;;;7.80;99.90;;;;;;5093270;28;20424;-54
2023/01/12 03:55:28;;;;;;;7.40;3.23;;;7.80;99.90;;;;;;5092756;28;20447;-55
2023/01/12 03:57:57;;;;;;;4.33;2.37;;;7.80;99.90;;;;;;5090575;28;20458;-55
2023/01/12 04:00:26;;;;;;;12.47;3.67;;;7.80;99.90;;;;;;5092916;28;20471;-55
2023/01/12 04:03:03;;;;;;;4.30;2.43;;;7.80;99.90;;;;;;5092563;28;20546;-54
2023/01/12 04:05:32;;;;;;;4.47;2.30;;;7.80;99.90;;;;;;5090779;28;20465;-55
2023/01/12 04:07:59;;;;;;;3.63;2.27;;;7.90;99.90;;;;;;5092521;28;20511;-55
2023/01/12 04:10:26;;;;;;;6.33;2.90;;;7.90;99.90;;;;;;5092550;28;20826;-55
2023/01/12 04:12:53;;;;;;;3.37;2.30;;;7.90;99.90;;;;;;5090708;28;20542;-55
2023/01/12 04:15:20;;;;;;;3.30;2.40;;;7.90;99.90;;;;;;5092723;28;20496;-55
2023/01/12 04:17:48;;;;;;;3.97;2.77;;;8.00;99.90;;;;;;5092467;28;20559;-54
2023/01/12 04:20:15;;;;;;;5.83;2.03;;;8.00;99.90;;;;;;5090538;28;20463;-55
2023/01/12 04:22:43;;;;;;;5.97;2.23;;;8.00;99.90;;;;;;5093669;28;21013;-54
2023/01/12 04:25:11;;;;;;;5.90;2.63;;;8.00;99.90;;;;;;5096132;28;20514;-54
2023/01/12 04:27:41;;;;;;;10.73;2.70;;;8.10;99.90;;;;;;5095140;28;20443;-56
2023/01/12 04:30:10;;;;;;;5.13;2.37;;;8.10;99.90;;;;;;5097100;28;20474;-54
2023/01/12 04:32:37;;;;;;;4.83;2.53;;;8.10;99.90;;;;;;5096617;28;20526;-54
2023/01/12 04:35:05;;;;;;;4.47;2.30;;;8.10;99.90;;;;;;5095127;28;20845;-54
2023/01/12 04:37:33;;;;;;;4.77;2.43;;;8.10;99.90;;;;;;5096766;28;20529;-54
2023/01/12 04:40:02;;;;;;;8.93;2.30;;;8.20;99.90;;;;;;5095850;28;20981;-54
2023/01/12 04:45:13;;;;;;;5.47;3.07;;;8.20;99.90;;;;;;5095950;28;20403;-55
2023/01/12 04:47:40;;;;;;;5.77;2.37;;;8.20;99.90;;;;;;5095893;28;20814;-54
2023/01/12 04:50:08;;;;;;;10.20;2.43;;;8.20;99.90;;;;;;5094057;28;20842;-54
2023/01/12 04:52:35;;;;;;;4.13;1.70;;;8.20;99.90;;;;;;5095491;28;20447;-54
2023/01/12 04:55:05;;;;;;;7.77;2.87;;;8.20;99.90;;;;;;5095989;28;20534;-54
2023/01/12 04:57:32;;;;;;;7.60;2.53;;;8.20;99.90;;;;;;5094055;28;20898;-55
2023/01/12 05:00:02;;;;;;;8.57;2.50;;;8.20;99.90;;;;;;5095888;28;20475;-55
2023/01/12 05:02:29;;;;;;;11.67;3.70;;;8.20;99.90;;;;;;5096042;28;20443;-55
2023/01/12 05:04:56;;;;;;;6.90;2.67;;;8.20;99.90;;;;;;5093883;28;20453;-54
2023/01/12 05:07:23;;;;;;;5.50;2.30;;;8.20;99.90;;;;;;5094936;28;20453;-56
2023/01/12 05:12:36;;;;;;;5.50;2.63;;;8.20;99.90;;;;;;5094293;28;20466;-55
2023/01/12 05:15:04;;;;;;;8.13;2.77;;;8.20;99.90;;;;;;5095667;28;20454;-56
2023/01/12 05:17:32;;;;;;;3.93;2.00;;;8.20;99.90;;;;;;5096151;28;20475;-55
2023/01/12 05:19:59;;;;;;;4.67;2.50;;;8.10;99.90;;;;;;5093662;28;20477;-54
2023/01/12 05:22:26;;;;;;;8.63;3.13;;;8.20;99.90;;;;;;5095656;28;20534;-56
2023/01/12 05:24:53;;;;;;;7.90;3.27;;;8.20;99.90;;;;;;5095978;28;20443;-54
2023/01/12 05:27:20;;;;;;;7.30;3.00;;;8.20;99.90;;;;;;5093217;28;20447;-54
2023/01/12 05:29:49;;;;;;;7.80;2.63;;;8.30;99.90;;;;;;5095364;28;20451;-54
2023/01/12 05:32:16;;;;;;;5.70;2.47;;;8.30;99.90;;;;;;5095496;28;20443;-55
2023/01/12 05:34:43;;;;;;;5.10;3.17;;;8.30;99.90;;;;;;5093487;28;20574;-55
2023/01/12 05:37:10;;;;;;;4.70;3.07;;;8.30;99.90;;;;;;5095413;28;20522;-55
2023/01/12 05:39:38;;;;;;;4.30;2.20;;;8.30;99.90;;;;;;5095890;28;20457;-56
2023/01/12 05:44:51;;;;;;;7.97;2.80;;;8.40;99.90;;;;;;5095408;28;20403;-54
2023/01/12 05:47:18;;;;;;;6.43;2.97;;;8.30;99.90;;;;;;5095244;28;20977;-55
2023/01/12 05:49:45;;;;;;;5.10;2.87;;;8.40;99.90;;;;;;5092853;28;20538;-55
2023/01/12 05:52:12;;;;;;;6.00;3.00;;;8.40;99.90;;;;;;5095355;28;20452;-54
2023/01/12 05:54:40;;;;;;;7.23;3.00;;;8.50;99.90;;;;;;5095007;28;20439;-55
2023/01/12 05:57:07;;;;;;;6.00;2.87;;;8.40;99.90;;;;;;5092664;28;20479;-55
2023/01/12 05:59:34;;;;;;;6.40;2.67;;;8.40;99.90;;;;;;5095205;28;20469;-55
2023/01/12 06:02:02;;;;;;;5.93;2.93;;;8.40;99.90;;;;;;5095177;28;20448;-54
2023/01/12 06:04:30;;;;;;;5.73;2.87;;;8.40;99.90;;;;;;5093016;28;20810;-55
2023/01/12 06:06:57;;;;;;;9.00;2.90;;;8.40;99.90;;;;;;5095026;28;20439;-55
2023/01/12 06:09:24;;;;;;;5.40;2.50;;;8.40;99.90;;;;;;5094890;28;20498;-55
2023/01/12 06:14:35;;;;;;;5.50;2.77;;;8.40;99.90;;;;;;5094537;28;20403;-55
2023/01/12 06:17:04;;;;;;;6.10;3.20;;;8.30;99.90;;;;;;5094374;28;20494;-55
2023/01/12 06:19:32;;;;;;;6.87;2.50;;;8.30;99.90;;;;;;5092514;28;20534;-57
2023/01/12 06:21:59;;;;;;;6.53;3.10;;;8.30;99.90;;;;;;5094626;28;20580;-56
2023/01/12 06:24:28;;;;;;;11.53;3.07;;;8.40;99.90;;;;;;5093813;28;20934;-57
2023/01/12 06:26:55;;;;;;;6.27;2.60;;;8.30;99.90;;;;;;5092298;28;20462;-55
2023/01/12 06:29:22;;;;;;;8.67;2.73;;;8.40;99.90;;;;;;5094030;28;20443;-56
2023/01/12 06:31:50;;;;;;;7.23;3.10;;;8.40;99.90;;;;;;5094457;28;20476;-55
2023/01/12 06:34:19;;;;;;;5.00;2.20;;;8.40;99.90;;;;;;5092189;28;20837;-55
2023/01/12 06:36:46;;;;;;;6.50;2.27;;;8.40;99.90;;;;;;5093944;28;20509;-55
2023/01/12 06:39:13;;;;;;;7.60;2.70;;;8.40;99.90;;;;;;5094516;28;20490;-56
2023/01/12 06:44:25;;;;;;;7.80;4.60;;;8.30;99.90;;;;;;5092919;28;21032;-56
2023/01/12 06:46:52;;;;;;;7.07;2.83;;;8.30;99.90;;;;;;5092603;28;21029;-55
2023/01/12 06:49:21;;;;;;;7.10;2.93;;;8.30;99.90;;;;;;5091642;28;20443;-55
2023/01/12 06:51:50;;;;;;;7.23;2.93;;;8.30;99.90;;;;;;5092742;28;21011;-55
2023/01/12 06:54:17;;;;;;;5.10;2.57;;;8.30;99.90;;;;;;5093300;28;20806;-55
2023/01/12 06:56:44;;;;;;;2.77;2.57;;;8.40;99.90;;;;;;5091640;28;20482;-55
2023/01/12 06:59:12;;;;;;;6.27;2.60;;;8.30;99.90;;;;;;5093867;28;20467;-56
2023/01/12 07:01:39;;;;;;;4.07;2.80;;;8.40;99.90;;;;;;5093615;28;20471;-55
2023/01/12 07:04:07;;;;;;;5.53;2.47;;;8.40;99.90;;;;;;5091451;28;20808;-55
2023/01/12 07:06:35;;;;;;;12.13;2.67;;;8.30;99.90;;;;;;5093479;28;20443;-54
2023/01/12 07:09:04;;;;;;;7.00;2.93;;;8.40;99.90;;;;;;5094184;28;20462;-54
2023/01/12 07:11:36;;;;;;;5.30;3.00;;;8.40;99.90;;;;;;5091607;28;20471;-58
2023/01/12 07:14:04;;;;;;;26.27;3.20;;;8.40;99.90;;;;;;5093444;28;20447;-55
2023/01/12 07:16:32;;;;;;;7.93;2.97;;;8.40;99.90;;;;;;5093603;28;20580;-55
2023/01/12 07:18:59;;;;;;;4.77;2.53;;;8.40;99.90;;;;;;5091118;28;20443;-55
2023/01/12 07:21:26;;;;;;;9.53;2.77;;;8.40;99.90;;;;;;5092935;28;20474;-56
2023/01/12 07:23:55;;;;;;;3.90;2.57;;;8.50;99.90;;;;;;5093355;28;20428;-56
2023/01/12 07:26:22;;;;;;;7.20;2.50;;;8.50;99.90;;;;;;5090877;28;20439;-55
2023/01/12 07:28:49;;;;;;;5.43;2.13;;;8.50;99.90;;;;;;5093312;28;20447;-56
2023/01/12 07:31:17;;;;;;;5.97;2.67;;;8.60;99.90;;;;;;5097592;28;20457;-56
2023/01/12 07:33:45;;;;;;;3.77;3.23;;;8.60;99.90;;;;;;5110921;28;20458;-55
2023/01/12 07:36:12;;;;;;;13.73;2.90;;;8.70;99.90;;;;;;5113502;28;20427;-56
2023/01/12 07:38:41;;;;;;;4.53;2.60;;;8.70;99.90;;;;;;5113840;28;20483;-55
2023/01/12 07:42:22;;;;;;;2.70;1.83;;;8.80;99.90;;;;;;5110910;28;20486;-54
2023/01/12 07:43:57;;;;;;;6.93;2.60;;;8.70;99.90;;;;;;5112903;28;20783;-55
2023/01/12 07:46:25;;;;;;;7.43;3.20;;;8.80;99.90;;;;;;5112084;28;20443;-56
2023/01/12 07:48:55;;;;;;;13.00;3.23;;;8.80;99.90;;;;;;5111403;28;20469;-56
2023/01/12 07:51:22;;;;;;;10.30;2.60;;;8.80;99.90;;;;;;5112949;28;20550;-55
2023/01/12 07:53:49;;;;;;;7.03;2.27;;;8.80;99.90;;;;;;5112899;28;20545;-55
2023/01/12 07:56:18;;;;;;;7.03;2.20;;;8.80;99.90;;;;;;5110994;28;20476;-55
2023/01/12 07:58:47;;;;;;;7.27;2.50;;;8.80;99.90;;;;;;5112387;28;20538;-56
2023/01/12 08:01:15;;;;;;;3.80;2.70;;;8.80;99.90;;;;;;5113062;28;20546;-56
2023/01/12 08:03:42;;;;;;;8.73;2.90;;;8.90;99.90;;;;;;5110770;28;20474;-56
2023/01/12 08:06:10;;;;;;;3.30;2.57;;;8.90;99.90;;;;;;5112851;28;20449;-55
2023/01/12 08:08:37;;;;;;;4.60;2.17;;;8.90;99.90;;;;;;5112855;28;20457;-55
2023/01/12 08:11:05;;;;;;;4.33;2.53;;;8.80;99.90;;;;;;5111047;28;20481;-56
2023/01/12 08:13:34;;;;;;;6.50;3.03;;;8.80;99.90;;;;;;5112508;28;20447;-56
2023/01/12 08:16:06;;;;;;;6.37;2.30;;;8.80;99.90;;;;;;5112762;28;20529;-56
2023/01/12 08:18:40;;;;;;;6.30;2.63;;;8.70;99.90;;;;;;5110445;28;20466;-57
2023/01/12 08:21:12;;;;;;;3.37;2.33;;;8.70;99.90;;;;;;5112751;28;20466;-55
2023/01/12 08:23:42;;;;;;;3.70;2.67;;;8.80;99.90;;;;;;5111676;28;20431;-56
2023/01/12 08:26:14;;;;;;;7.60;2.40;;;8.70;99.90;;;;;;5112250;28;20449;-55
2023/01/12 08:28:46;;;;;;;4.10;2.97;;;8.70;99.90;;;;;;5112398;28;20775;-56
2023/01/12 08:31:16;;;;;;;5.80;2.60;;;8.80;99.90;;;;;;5110597;28;20471;-55
2023/01/12 08:33:44;;;;;;;4.80;2.47;;;8.80;99.90;;;;;;5111979;28;20616;-56
2023/01/12 08:36:15;;;;;;;8.10;2.83;;;8.80;99.90;;;;;;5112377;28;20450;-56
2023/01/12 08:38:42;;;;;;;5.20;2.33;;;8.80;99.90;;;;;;5110295;28;20478;-56
2023/01/12 08:44:04;;;;;;;4.83;2.90;;;8.80;99.90;;;;;;5112424;28;20410;-56
2023/01/12 08:46:34;;;;;;;9.67;2.33;;;8.90;99.90;;;;;;5110066;28;20458;-58
2023/01/12 08:49:02;;;;;;;8.97;3.30;;;8.80;99.90;;;;;;5112832;28;20470;-56
2023/01/12 08:51:29;;;;;;;4.93;2.00;;;8.80;99.90;;;;;;5112073;28;20470;-57
2023/01/12 08:53:56;;;;;;;2.53;2.03;;;8.80;99.90;;;;;;5110424;28;20593;-56
2023/01/12 08:56:24;;;;;;;10.63;3.00;;;8.90;99.90;;;;;;5111828;28;20493;-57
2023/01/12 08:58:51;;;;;;;5.03;2.40;;;8.90;99.90;;;;;;5112428;28;20474;-56
2023/01/12 09:01:20;;;;;;;6.30;2.37;;;8.90;99.90;;;;;;5110290;28;20505;-57
2023/01/12 09:03:48;;;;;;;4.40;2.77;;;8.90;99.90;;;;;;5112101;28;20450;-56
2023/01/12 09:06:17;;;;;;;2.80;2.07;;;8.90;99.90;;;;;;5111886;28;20454;-57
2023/01/12 09:08:45;;;;;;;9.60;2.17;;;9.00;99.90;;;;;;5110773;28;20442;-57
2023/01/12 09:11:15;;;;;;;3.27;2.50;;;9.00;99.90;;;;;;5115485;28;20471;-57
2023/01/12 09:13:42;;;;;;;4.97;2.10;;;9.00;99.90;;;;;;5116503;28;20451;-56
2023/01/12 09:16:14;;;;;;;6.70;2.33;;;9.00;99.90;;;;;;5114212;28;20806;-58
2023/01/12 09:18:44;;;;;;;5.87;2.80;;;9.00;99.90;;;;;;5115605;28;20466;-57
2023/01/12 09:21:13;;;;;;;5.30;2.77;;;9.00;99.90;;;;;;5116044;28;20474;-57
2023/01/12 09:23:41;;;;;;;3.23;2.17;;;9.00;99.90;;;;;;5114100;28;20446;-57
2023/01/12 09:26:10;;;;;;;2.53;2.10;;;9.10;99.90;;;;;;5115347;28;20987;-56
2023/01/12 09:28:38;;;;;;;8.70;2.40;;;9.10;99.90;;;;;;5116117;28;20530;-57
2023/01/12 09:31:07;;;;;;;8.70;3.47;;;9.10;99.90;;;;;;5113651;28;20590;-56
2023/01/12 09:33:37;;;;;;;5.80;2.50;;;9.20;99.90;;;;;;5115707;28;20442;-57
2023/01/12 09:36:08;;;;;;;5.87;2.40;;;9.20;99.90;;;;;;5115760;28;20949;-57
2023/01/12 09:38:35;;;;;;;6.30;2.90;;;9.30;99.90;;;;;;5113568;28;20592;-56
2023/01/12 09:41:10;;;;;;;8.07;2.73;;;9.30;99.90;;;;;;5115203;28;20485;-57
2023/01/12 09:49:13;;;;;;;5.87;3.03;;;9.30;99.90;;;;;;5115356;28;20749;-56
2023/01/12 09:51:46;;;;;;;6.63;2.93;;;9.40;99.90;;;;;;5115575;28;20553;-57
2023/01/12 09:54:13;;;;;;;4.07;1.90;;;9.40;99.90;;;;;;5113299;28;20853;-56
2023/01/12 09:56:50;;;;;;;8.10;2.13;;;9.50;99.90;;;;;;5115582;28;20449;-56
2023/01/12 09:59:31;;;;;;;5.87;2.43;;;9.50;99.90;;;;;;5115277;28;20454;-56
2023/01/12 10:01:59;;;;;;;5.00;2.47;;;9.50;99.90;;;;;;5113241;28;20427;-58
2023/01/12 10:04:26;;;;;;;3.60;2.60;;;9.60;99.90;;;;;;5114621;28;20482;-57
2023/01/12 10:06:55;;;;;;;4.33;2.57;;;9.60;99.90;;;;;;5115419;28;20446;-56
2023/01/12 10:09:23;;;;;;;8.27;2.23;;;9.60;99.90;;;;;;5113051;28;20536;-57
2023/01/12 10:11:58;;;;;;;5.13;2.13;;;9.70;99.90;;;;;;5115150;28;20462;-56
2023/01/12 10:15:03;;;;;;;8.83;2.50;;;9.70;99.90;;;;;;5115073;28;20509;-56
2023/01/12 10:17:38;;;;;;;5.37;2.17;;;9.70;99.90;;;;;;5077669;28;20561;-56
2023/01/12 10:20:17;;;;;;;4.70;1.77;;;9.80;99.90;;;;;;5114059;28;20794;-56
2023/01/12 10:22:49;;;;;;;3.17;2.20;;;9.90;99.90;;;;;;5112656;28;20444;-57
2023/01/12 10:25:38;;;;;;;4.43;2.10;;;9.90;99.90;;;;;;5115059;28;20450;-56
2023/01/12 10:28:08;;;;;;;3.53;1.87;;;9.90;99.90;;;;;;5110580;28;20471;-57
2023/01/12 10:30:37;;;;;;;6.77;2.10;;;9.90;99.90;;;;;;5112549;28;20462;-57
2023/01/12 10:33:16;;;;;;;4.07;1.93;;;9.90;99.90;;;;;;5114707;28;20529;-57
2023/01/12 10:35:59;;;;;;;5.60;1.90;;;9.90;99.90;;;;;;5114608;28;20439;-57
2023/01/12 10:38:30;;;;;;;4.83;2.00;;;10.00;99.90;;;;;;5112432;28;20976;-57
2023/01/12 10:41:22;;;;;;;2.63;1.80;;;10.10;99.90;;;;;;5114327;28;20478;-56
2023/01/12 10:44:06;;;;;;;4.70;2.00;;;10.10;99.90;;;;;;5098854;28;20450;-57
2023/01/12 10:46:34;;;;;;;2.83;1.73;;;10.20;99.90;;;;;;5112639;28;20510;-56
2023/01/12 10:49:17;;;;;;;4.20;2.30;;;10.20;99.90;;;;;;5114401;28;20519;-56
2023/01/12 10:51:54;;;;;;;3.03;2.07;;;10.20;99.90;;;;;;5112363;28;20478;-57
2023/01/12 10:54:27;;;;;;;3.17;2.30;;;10.10;99.90;;;;;;5113896;28;20831;-57
2023/01/12 10:56:58;;;;;;;7.60;2.47;;;10.10;99.90;;;;;;5113664;28;20420;-57
2023/01/12 10:59:30;;;;;;;4.67;1.73;;;10.10;99.90;;;;;;5111508;28;21100;-57
2023/01/12 11:02:15;;;;;;;8.63;2.00;;;10.10;99.90;;;;;;5114021;28;20427;-57
2023/01/12 11:04:44;;;;;;;5.27;2.40;;;10.20;99.90;;;;;;5113787;28;21020;-56
2023/01/12 11:07:13;;;;;;;2.83;1.60;;;10.20;99.90;;;;;;5111860;28;20986;-56
2023/01/12 11:09:43;;;;;;;1.80;1.60;;;10.10;99.90;;;;;;5114197;28;20478;-56
2023/01/12 11:12:23;;;;;;;3.23;1.57;;;10.20;99.90;;;;;;5113801;28;20433;-57
2023/01/12 11:15:15;;;;;;;2.93;1.77;;;10.20;99.90;;;;;;5111777;28;20517;-56
2023/01/12 11:17:58;;;;;;;2.47;1.33;;;10.20;99.90;;;;;;5113686;28;20411;-57
2023/01/12 11:20:32;;;;;;;4.80;2.13;;;10.30;99.90;;;;;;5113801;28;20470;-57
2023/01/12 11:23:01;;;;;;;3.97;1.90;;;10.20;99.90;;;;;;5111461;28;20884;-56
2023/01/12 11:25:34;;;;;;;1.60;1.50;;;10.30;99.90;;;;;;5113072;28;20533;-56
2023/01/12 11:28:06;;;;;;;2.70;1.60;;;10.30;99.90;;;;;;5114319;28;20465;-56
2023/01/12 11:30:40;;;;;;;1.73;1.57;;;10.30;99.90;;;;;;5111515;28;20960;-57
2023/01/12 11:33:13;;;;;;;4.70;1.60;;;10.30;99.90;;;;;;5112813;28;20431;-57
2023/01/12 11:35:45;;;;;;;2.70;2.00;;;10.30;99.90;;;;;;5113387;28;20462;-58
2023/01/12 11:38:17;;;;;;;1.80;1.43;;;10.30;99.90;;;;;;5111398;28;20471;-56
2023/01/12 11:40:46;;;;;;;2.43;1.60;;;10.30;99.90;;;;;;5112470;28;20486;-57
2023/01/12 11:46:18;;;;;;;2.13;1.93;;;10.30;99.90;;;;;;5113132;28;20782;-57
2023/01/12 11:48:55;;;;;;;2.83;1.90;;;10.30;99.90;;;;;;5113135;28;20429;-57
2023/01/12 11:51:22;;;;;;;1.70;1.60;;;10.30;99.90;;;;;;5111645;28;20553;-57
2023/01/12 11:53:49;;;;;;;2.00;1.43;;;10.40;99.90;;;;;;5112691;28;21022;-57
2023/01/12 11:56:45;;;;;;;2.40;1.50;;;10.50;99.90;;;;;;5113188;28;20446;-57
2023/01/12 11:59:19;;;;;;;4.53;1.70;;;10.60;99.90;;;;;;5110387;28;20498;-55
2023/01/12 12:01:55;;;;;;;3.40;1.80;;;10.60;99.90;;;;;;5111912;28;20466;-55
2023/01/12 12:04:39;;;;;;;3.43;1.73;;;10.70;99.90;;;;;;5112211;28;20816;-56
2023/01/12 12:07:16;;;;;;;5.03;1.97;;;10.50;99.90;;;;;;5110707;28;20438;-55
2023/01/12 12:10:01;;;;;;;8.70;2.20;;;10.60;99.90;;;;;;5112751;28;20499;-55
2023/01/12 12:12:43;;;;;;;2.60;1.40;;;10.40;99.90;;;;;;5111675;28;21107;-55
2023/01/12 12:15:25;;;;;;;2.40;1.63;;;10.30;99.90;;;;;;5110615;28;20909;-55
2023/01/12 12:18:01;;;;;;;3.87;1.90;;;10.40;99.90;;;;;;5112662;28;20431;-54
2023/01/12 12:20:37;;;;;;;3.60;1.70;;;10.40;99.90;;;;;;5112051;28;20469;-55
2023/01/12 12:23:18;;;;;;;2.27;1.67;;;10.60;99.90;;;;;;5112242;28;20437;-55
2023/01/12 12:25:56;;;;;;;1.77;1.33;;;10.60;99.90;;;;;;5112406;28;20919;-54
2023/01/12 12:28:57;;;;;;;5.33;1.83;;;10.50;99.90;;;;;;5109926;28;20730;-55
2023/01/12 12:31:57;;;;;;;2.73;1.23;;;10.50;99.90;;;;;;5078352;28;20494;-56
2023/01/12 12:34:50;;;;;;;2.70;1.50;;;10.40;99.90;;;;;;5096774;28;20446;-54
2023/01/12 12:37:25;;;;;;;3.23;1.80;;;10.40;99.90;;;;;;5110123;28;20506;-59
2023/01/12 12:39:57;;;;;;;2.27;1.67;;;10.40;99.90;;;;;;5112552;28;20486;-55
2023/01/12 12:45:47;;;;;;;1.83;1.53;;;10.30;99.90;;;;;;5114682;28;20418;-55
2023/01/12 12:48:18;;;;;;;4.07;1.90;;;10.40;99.90;;;;;;5101165;28;20455;-55
2023/01/12 12:50:54;;;;;;;37.93;20.03;;;10.40;99.90;;;;;;5096458;28;20482;-55
2023/01/12 12:53:26;;;;;;;8.93;5.87;;;10.50;99.90;;;;;;5095454;28;20424;-55
2023/01/12 12:55:57;;;;;;;1.97;1.70;;;10.40;99.90;;;;;;5095670;28;20530;-54
2023/01/12 12:58:29;;;;;;;2.53;1.67;;;10.50;99.90;;;;;;5093497;28;20566;-57
2023/01/12 13:01:42;;;;;;;2.60;1.40;;;10.50;99.90;;;;;;5096084;28;20467;-56
2023/01/12 13:04:11;;;;;;;1.97;1.47;;;10.60;99.90;;;;;;5095675;28;20454;-56
2023/01/12 13:06:49;;;;;;;3.37;1.60;;;10.60;99.90;;;;;;5093800;28;20884;-56
2023/01/12 13:09:40;;;;;;;1.97;1.33;;;10.60;99.90;;;;;;5096175;28;20581;-56
2023/01/12 13:12:20;;;;;;;4.60;1.50;;;10.50;99.90;;;;;;5095663;28;20447;-56
2023/01/12 13:15:16;;;;;;;6.73;1.90;;;10.60;99.90;;;;;;5095807;28;20786;-56
2023/01/12 13:17:47;;;;;;;9.10;1.60;;;10.60;99.90;;;;;;5095514;28;20440;-56
2023/01/12 13:20:35;;;;;;;2.73;1.40;;;10.50;99.90;;;;;;5093504;28;20487;-55
2023/01/12 13:23:02;;;;;;;2.20;1.67;;;10.50;99.90;;;;;;5095903;28;20446;-56
2023/01/12 13:26:02;;;;;;;1.70;1.60;;;10.50;99.90;;;;;;5094104;28;20447;-55
2023/01/12 13:28:29;;;;;;;3.63;1.50;;;10.50;99.90;;;;;;5011028;28;20427;-56
2023/01/12 13:30:57;;;;;;;3.43;1.23;;;10.50;99.90;;;;;;5013033;28;20566;-55
2023/01/12 13:33:27;;;;;;;1.70;1.43;;;10.40;99.90;;;;;;5049718;28;20443;-55
2023/01/12 13:36:08;;;;;;;8.03;1.50;;;10.50;99.90;;;;;;5093845;28;20447;-56
2023/01/12 13:38:52;;;;;;;2.03;1.60;;;10.40;99.90;;;;;;5094979;28;20482;-56
2023/01/12 13:44:14;;;;;;;1.53;1.40;;;10.40;99.90;;;;;;5092751;28;20407;-55
2023/01/12 13:46:45;;;;;;;1.70;1.47;;;10.40;99.90;;;;;;5094779;28;20432;-56
2023/01/12 13:49:26;;;;;;;2.60;1.10;;;10.40;99.90;;;;;;5094557;28;20446;-56
2023/01/12 13:51:58;;;;;;;5.03;1.93;;;10.40;99.90;;;;;;5094640;28;20471;-55
2023/01/12 13:54:25;;;;;;;3.30;1.47;;;10.50;99.90;;;;;;5094421;28;20432;-57
2023/01/12 13:56:58;;;;;;;1.30;1.20;;;10.40;99.90;;;;;;5092783;28;20862;-55
2023/01/12 13:59:27;;;;;;;2.53;1.43;;;10.40;99.90;;;;;;5094585;28;20520;-55
2023/01/12 14:01:55;;;;;;;1.97;1.30;;;10.40;99.90;;;;;;5094809;28;20479;-55